sensor_id;sensor_type;location;lat;lon;timestamp;P1;durP1;ratioP1;P2;durP2;ratioP2
49193;SDS011;35029;50.804;12.866;2023-02-12T00:02:14;92.80;;;39.17;;
49193;SDS011;35029;50.804;12.866;2023-02-12T00:04:42;86.53;;;37.78;;
49193;SDS011;35029;50.804;12.866;2023-02-12T00:07:08;87.40;;;37.90;;
49193;SDS011;35029;50.804;12.866;2023-02-12T00:09:37;82.97;;;36.75;;
49193;SDS011;35029;50.804;12.866;2023-02-12T00:12:20;81.68;;;35.88;;
49193;SDS011;35029;50.804;12.866;2023-02-12T00:14:46;80.43;;;36.63;;
49193;SDS011;35029;50.804;12.866;2023-02-12T00:17:16;89.38;;;36.08;;
49193;SDS011;35029;50.804;12.866;2023-02-12T00:19:41;74.60;;;33.10;;
49193;SDS011;35029;50.804;12.866;2023-02-12T00:22:07;82.80;;;35.13;;
49193;SDS011;35029;50.804;12.866;2023-02-12T00:24:33;76.68;;;34.85;;
49193;SDS011;35029;50.804;12.866;2023-02-12T00:27:08;84.53;;;36.50;;
49193;SDS011;35029;50.804;12.866;2023-02-12T00:29:34;87.05;;;37.65;;
49193;SDS011;35029;50.804;12.866;2023-02-12T00:32:03;82.18;;;35.88;;
49193;SDS011;35029;50.804;12.866;2023-02-12T00:34:29;78.80;;;36.45;;
49193;SDS011;35029;50.804;12.866;2023-02-12T00:37:01;82.97;;;36.83;;
49193;SDS011;35029;50.804;12.866;2023-02-12T00:39:27;78.30;;;36.30;;
49193;SDS011;35029;50.804;12.866;2023-02-12T00:41:59;79.05;;;37.08;;
49193;SDS011;35029;50.804;12.866;2023-02-12T00:44:26;87.00;;;35.28;;
49193;SDS011;35029;50.804;12.866;2023-02-12T00:46:52;82.28;;;34.53;;
49193;SDS011;35029;50.804;12.866;2023-02-12T00:49:17;79.47;;;34.78;;
49193;SDS011;35029;50.804;12.866;2023-02-12T00:51:45;80.53;;;34.03;;
49193;SDS011;35029;50.804;12.866;2023-02-12T00:54:11;75.80;;;35.00;;
49193;SDS011;35029;50.804;12.866;2023-02-12T00:56:36;84.15;;;34.40;;
49193;SDS011;35029;50.804;12.866;2023-02-12T00:59:02;87.40;;;36.08;;
49193;SDS011;35029;50.804;12.866;2023-02-12T01:01:28;80.78;;;36.97;;
49193;SDS011;35029;50.804;12.866;2023-02-12T01:03:54;88.97;;;37.97;;
49193;SDS011;35029;50.804;12.866;2023-02-12T01:06:20;78.63;;;33.53;;
49193;SDS011;35029;50.804;12.866;2023-02-12T01:08:48;82.20;;;34.80;;
49193;SDS011;35029;50.804;12.866;2023-02-12T01:11:15;84.47;;;36.22;;
49193;SDS011;35029;50.804;12.866;2023-02-12T01:13:40;73.68;;;34.30;;
49193;SDS011;35029;50.804;12.866;2023-02-12T01:16:17;81.15;;;34.72;;
49193;SDS011;35029;50.804;12.866;2023-02-12T01:18:49;67.97;;;30.17;;
49193;SDS011;35029;50.804;12.866;2023-02-12T01:21:18;75.25;;;32.78;;
49193;SDS011;35029;50.804;12.866;2023-02-12T01:23:46;74.65;;;33.80;;
49193;SDS011;35029;50.804;12.866;2023-02-12T01:26:13;73.78;;;33.60;;
49193;SDS011;35029;50.804;12.866;2023-02-12T01:28:41;78.18;;;35.85;;
49193;SDS011;35029;50.804;12.866;2023-02-12T01:31:12;79.20;;;33.78;;
49193;SDS011;35029;50.804;12.866;2023-02-12T01:33:43;75.93;;;34.25;;
49193;SDS011;35029;50.804;12.866;2023-02-12T01:36:11;90.40;;;37.13;;
49193;SDS011;35029;50.804;12.866;2023-02-12T01:38:36;96.38;;;39.17;;
49193;SDS011;35029;50.804;12.866;2023-02-12T01:41:06;90.88;;;36.28;;
49193;SDS011;35029;50.804;12.866;2023-02-12T01:43:34;84.63;;;35.40;;
49193;SDS011;35029;50.804;12.866;2023-02-12T01:46:03;93.95;;;37.42;;
49193;SDS011;35029;50.804;12.866;2023-02-12T01:48:36;88.57;;;38.17;;
49193;SDS011;35029;50.804;12.866;2023-02-12T01:51:05;91.72;;;38.50;;
49193;SDS011;35029;50.804;12.866;2023-02-12T01:53:38;82.65;;;37.22;;
49193;SDS011;35029;50.804;12.866;2023-02-12T01:56:08;91.28;;;37.38;;
49193;SDS011;35029;50.804;12.866;2023-02-12T01:58:35;85.10;;;37.50;;
49193;SDS011;35029;50.804;12.866;2023-02-12T02:01:10;85.40;;;35.30;;
49193;SDS011;35029;50.804;12.866;2023-02-12T02:03:41;76.00;;;34.28;;
49193;SDS011;35029;50.804;12.866;2023-02-12T02:06:13;74.53;;;33.42;;
49193;SDS011;35029;50.804;12.866;2023-02-12T02:08:42;78.20;;;35.38;;
49193;SDS011;35029;50.804;12.866;2023-02-12T02:11:09;90.18;;;36.85;;
49193;SDS011;35029;50.804;12.866;2023-02-12T02:13:53;89.95;;;36.85;;
49193;SDS011;35029;50.804;12.866;2023-02-12T02:16:39;91.43;;;36.45;;
49193;SDS011;35029;50.804;12.866;2023-02-12T02:19:18;95.32;;;39.00;;
49193;SDS011;35029;50.804;12.866;2023-02-12T02:27:46;104.18;;;39.63;;
49193;SDS011;35029;50.804;12.866;2023-02-12T02:38:33;96.18;;;39.10;;
49193;SDS011;35029;50.804;12.866;2023-02-12T02:41:08;92.78;;;38.45;;
49193;SDS011;35029;50.804;12.866;2023-02-12T02:43:43;90.78;;;37.75;;
49193;SDS011;35029;50.804;12.866;2023-02-12T02:46:15;93.63;;;37.50;;
49193;SDS011;35029;50.804;12.866;2023-02-12T02:48:53;110.18;;;42.40;;
49193;SDS011;35029;50.804;12.866;2023-02-12T02:51:25;85.72;;;37.60;;
49193;SDS011;35029;50.804;12.866;2023-02-12T02:54:12;82.00;;;35.85;;
49193;SDS011;35029;50.804;12.866;2023-02-12T02:56:43;102.55;;;41.33;;
49193;SDS011;35029;50.804;12.866;2023-02-12T02:59:13;90.63;;;38.58;;
49193;SDS011;35029;50.804;12.866;2023-02-12T03:01:57;84.38;;;38.55;;
49193;SDS011;35029;50.804;12.866;2023-02-12T03:07:03;100.60;;;39.77;;
49193;SDS011;35029;50.804;12.866;2023-02-12T03:09:36;96.07;;;41.67;;
49193;SDS011;35029;50.804;12.866;2023-02-12T03:12:15;85.68;;;37.75;;
49193;SDS011;35029;50.804;12.866;2023-02-12T03:14:53;90.13;;;38.10;;
49193;SDS011;35029;50.804;12.866;2023-02-12T03:17:26;94.85;;;37.72;;
49193;SDS011;35029;50.804;12.866;2023-02-12T03:20:40;93.78;;;39.00;;
49193;SDS011;35029;50.804;12.866;2023-02-12T03:23:07;97.82;;;39.80;;
49193;SDS011;35029;50.804;12.866;2023-02-12T03:25:40;95.78;;;39.53;;
49193;SDS011;35029;50.804;12.866;2023-02-12T03:28:15;106.22;;;42.88;;
49193;SDS011;35029;50.804;12.866;2023-02-12T03:30:51;101.32;;;40.65;;
49193;SDS011;35029;50.804;12.866;2023-02-12T03:33:31;103.65;;;42.80;;
49193;SDS011;35029;50.804;12.866;2023-02-12T03:36:19;100.60;;;41.33;;
49193;SDS011;35029;50.804;12.866;2023-02-12T03:39:27;113.20;;;42.92;;
49193;SDS011;35029;50.804;12.866;2023-02-12T03:41:58;114.20;;;43.80;;
49193;SDS011;35029;50.804;12.866;2023-02-12T03:47:13;110.95;;;41.63;;
49193;SDS011;35029;50.804;12.866;2023-02-12T03:50:06;106.68;;;42.58;;
49193;SDS011;35029;50.804;12.866;2023-02-12T03:52:41;115.10;;;44.13;;
49193;SDS011;35029;50.804;12.866;2023-02-12T03:55:09;106.00;;;41.40;;
49193;SDS011;35029;50.804;12.866;2023-02-12T03:57:38;121.55;;;46.15;;
49193;SDS011;35029;50.804;12.866;2023-02-12T04:00:13;132.95;;;45.72;;
49193;SDS011;35029;50.804;12.866;2023-02-12T04:02:45;117.20;;;44.10;;
49193;SDS011;35029;50.804;12.866;2023-02-12T04:05:15;117.57;;;44.92;;
49193;SDS011;35029;50.804;12.866;2023-02-12T04:07:42;116.60;;;46.42;;
49193;SDS011;35029;50.804;12.866;2023-02-12T04:10:08;117.28;;;45.10;;
49193;SDS011;35029;50.804;12.866;2023-02-12T04:17:57;109.13;;;40.70;;
49193;SDS011;35029;50.804;12.866;2023-02-12T04:20:26;116.30;;;43.22;;
49193;SDS011;35029;50.804;12.866;2023-02-12T04:30:35;116.95;;;44.63;;
49193;SDS011;35029;50.804;12.866;2023-02-12T04:33:08;111.75;;;42.13;;
49193;SDS011;35029;50.804;12.866;2023-02-12T04:38:20;124.80;;;39.13;;
49193;SDS011;35029;50.804;12.866;2023-02-12T04:40:50;100.95;;;39.25;;
49193;SDS011;35029;50.804;12.866;2023-02-12T04:43:31;93.50;;;40.97;;
49193;SDS011;35029;50.804;12.866;2023-02-12T04:46:02;99.82;;;40.50;;
49193;SDS011;35029;50.804;12.866;2023-02-12T04:48:29;114.55;;;43.80;;
49193;SDS011;35029;50.804;12.866;2023-02-12T04:50:54;104.03;;;40.70;;
49193;SDS011;35029;50.804;12.866;2023-02-12T04:53:20;101.22;;;38.17;;
49193;SDS011;35029;50.804;12.866;2023-02-12T04:55:46;103.70;;;39.47;;
49193;SDS011;35029;50.804;12.866;2023-02-12T04:58:13;103.72;;;39.97;;
49193;SDS011;35029;50.804;12.866;2023-02-12T05:00:39;96.43;;;37.53;;
49193;SDS011;35029;50.804;12.866;2023-02-12T05:03:04;98.43;;;38.58;;
49193;SDS011;35029;50.804;12.866;2023-02-12T05:05:30;94.80;;;37.13;;
49193;SDS011;35029;50.804;12.866;2023-02-12T05:07:56;95.40;;;36.83;;
49193;SDS011;35029;50.804;12.866;2023-02-12T05:10:22;89.65;;;35.28;;
49193;SDS011;35029;50.804;12.866;2023-02-12T05:12:50;82.88;;;33.63;;
49193;SDS011;35029;50.804;12.866;2023-02-12T05:15:16;92.22;;;33.85;;
49193;SDS011;35029;50.804;12.866;2023-02-12T05:17:42;77.63;;;31.73;;
49193;SDS011;35029;50.804;12.866;2023-02-12T05:20:10;73.22;;;30.85;;
49193;SDS011;35029;50.804;12.866;2023-02-12T05:22:36;79.85;;;33.13;;
49193;SDS011;35029;50.804;12.866;2023-02-12T05:25:02;76.13;;;32.05;;
49193;SDS011;35029;50.804;12.866;2023-02-12T05:27:28;79.32;;;31.77;;
49193;SDS011;35029;50.804;12.866;2023-02-12T05:29:53;67.57;;;30.58;;
49193;SDS011;35029;50.804;12.866;2023-02-12T05:32:21;70.28;;;30.45;;
49193;SDS011;35029;50.804;12.866;2023-02-12T05:34:48;69.93;;;29.67;;
49193;SDS011;35029;50.804;12.866;2023-02-12T05:37:13;74.78;;;30.25;;
49193;SDS011;35029;50.804;12.866;2023-02-12T05:39:40;71.63;;;30.77;;
49193;SDS011;35029;50.804;12.866;2023-02-12T05:42:06;80.70;;;31.45;;
49193;SDS011;35029;50.804;12.866;2023-02-12T05:44:31;84.13;;;31.95;;
49193;SDS011;35029;50.804;12.866;2023-02-12T05:46:57;75.25;;;29.90;;
49193;SDS011;35029;50.804;12.866;2023-02-12T05:49:23;73.07;;;30.65;;
49193;SDS011;35029;50.804;12.866;2023-02-12T05:51:49;80.90;;;32.08;;
49193;SDS011;35029;50.804;12.866;2023-02-12T05:54:15;83.88;;;31.63;;
49193;SDS011;35029;50.804;12.866;2023-02-12T05:56:42;87.85;;;34.10;;
49193;SDS011;35029;50.804;12.866;2023-02-12T05:59:27;100.65;;;36.28;;
49193;SDS011;35029;50.804;12.866;2023-02-12T06:01:53;77.45;;;31.85;;
49193;SDS011;35029;50.804;12.866;2023-02-12T06:04:23;76.82;;;31.08;;
49193;SDS011;35029;50.804;12.866;2023-02-12T06:06:51;74.00;;;28.55;;
49193;SDS011;35029;50.804;12.866;2023-02-12T06:09:17;69.22;;;30.30;;
49193;SDS011;35029;50.804;12.866;2023-02-12T06:11:43;72.88;;;31.02;;
49193;SDS011;35029;50.804;12.866;2023-02-12T06:14:10;68.97;;;29.17;;
49193;SDS011;35029;50.804;12.866;2023-02-12T06:16:38;63.03;;;27.17;;
49193;SDS011;35029;50.804;12.866;2023-02-12T06:19:04;66.40;;;28.48;;
49193;SDS011;35029;50.804;12.866;2023-02-12T06:21:31;69.35;;;27.98;;
49193;SDS011;35029;50.804;12.866;2023-02-12T06:23:57;61.38;;;28.13;;
49193;SDS011;35029;50.804;12.866;2023-02-12T06:26:23;77.60;;;31.05;;
49193;SDS011;35029;50.804;12.866;2023-02-12T06:28:49;74.93;;;29.90;;
49193;SDS011;35029;50.804;12.866;2023-02-12T06:31:22;70.63;;;28.23;;
49193;SDS011;35029;50.804;12.866;2023-02-12T06:33:59;72.67;;;28.13;;
49193;SDS011;35029;50.804;12.866;2023-02-12T06:36:26;73.35;;;29.92;;
49193;SDS011;35029;50.804;12.866;2023-02-12T06:38:52;73.30;;;28.63;;
49193;SDS011;35029;50.804;12.866;2023-02-12T06:41:18;77.10;;;29.80;;
49193;SDS011;35029;50.804;12.866;2023-02-12T06:43:45;68.28;;;26.73;;
49193;SDS011;35029;50.804;12.866;2023-02-12T06:46:11;68.53;;;29.38;;
49193;SDS011;35029;50.804;12.866;2023-02-12T06:48:37;64.03;;;26.48;;
49193;SDS011;35029;50.804;12.866;2023-02-12T06:51:07;61.65;;;25.65;;
49193;SDS011;35029;50.804;12.866;2023-02-12T06:53:35;74.13;;;26.05;;
49193;SDS011;35029;50.804;12.866;2023-02-12T06:56:02;68.38;;;26.48;;
49193;SDS011;35029;50.804;12.866;2023-02-12T06:58:30;71.78;;;27.77;;
49193;SDS011;35029;50.804;12.866;2023-02-12T07:00:55;66.40;;;28.52;;
49193;SDS011;35029;50.804;12.866;2023-02-12T07:03:21;70.72;;;28.35;;
49193;SDS011;35029;50.804;12.866;2023-02-12T07:05:47;78.22;;;27.10;;
49193;SDS011;35029;50.804;12.866;2023-02-12T07:08:13;67.88;;;27.25;;
49193;SDS011;35029;50.804;12.866;2023-02-12T07:10:40;61.53;;;25.48;;
49193;SDS011;35029;50.804;12.866;2023-02-12T07:13:05;62.53;;;25.88;;
49193;SDS011;35029;50.804;12.866;2023-02-12T07:15:31;77.43;;;28.17;;
49193;SDS011;35029;50.804;12.866;2023-02-12T07:17:56;67.20;;;26.13;;
49193;SDS011;35029;50.804;12.866;2023-02-12T07:20:22;66.70;;;27.10;;
49193;SDS011;35029;50.804;12.866;2023-02-12T07:22:47;74.43;;;28.27;;
49193;SDS011;35029;50.804;12.866;2023-02-12T07:25:13;68.97;;;27.13;;
49193;SDS011;35029;50.804;12.866;2023-02-12T07:27:39;62.08;;;25.85;;
49193;SDS011;35029;50.804;12.866;2023-02-12T07:30:04;60.05;;;24.50;;
49193;SDS011;35029;50.804;12.866;2023-02-12T07:32:33;82.60;;;29.05;;
49193;SDS011;35029;50.804;12.866;2023-02-12T07:34:59;83.25;;;28.25;;
49193;SDS011;35029;50.804;12.866;2023-02-12T07:37:25;71.45;;;27.15;;
49193;SDS011;35029;50.804;12.866;2023-02-12T07:39:51;81.97;;;29.33;;
49193;SDS011;35029;50.804;12.866;2023-02-12T07:42:16;76.68;;;28.77;;
49193;SDS011;35029;50.804;12.866;2023-02-12T07:44:47;76.90;;;29.00;;
49193;SDS011;35029;50.804;12.866;2023-02-12T07:47:14;75.00;;;26.95;;
49193;SDS011;35029;50.804;12.866;2023-02-12T07:49:40;89.10;;;29.85;;
49193;SDS011;35029;50.804;12.866;2023-02-12T07:52:07;101.43;;;31.15;;
49193;SDS011;35029;50.804;12.866;2023-02-12T07:54:32;86.15;;;30.75;;
49193;SDS011;35029;50.804;12.866;2023-02-12T07:56:58;74.30;;;29.65;;
49193;SDS011;35029;50.804;12.866;2023-02-12T07:59:24;73.22;;;28.95;;
49193;SDS011;35029;50.804;12.866;2023-02-12T08:01:52;81.60;;;28.50;;
49193;SDS011;35029;50.804;12.866;2023-02-12T08:04:20;86.22;;;29.27;;
49193;SDS011;35029;50.804;12.866;2023-02-12T08:06:49;81.47;;;29.75;;
49193;SDS011;35029;50.804;12.866;2023-02-12T08:09:18;75.75;;;27.55;;
49193;SDS011;35029;50.804;12.866;2023-02-12T08:11:46;71.40;;;27.52;;
49193;SDS011;35029;50.804;12.866;2023-02-12T08:14:13;88.22;;;29.15;;
49193;SDS011;35029;50.804;12.866;2023-02-12T08:16:42;80.72;;;27.95;;
49193;SDS011;35029;50.804;12.866;2023-02-12T08:19:10;72.35;;;27.30;;
49193;SDS011;35029;50.804;12.866;2023-02-12T08:21:36;74.15;;;26.70;;
49193;SDS011;35029;50.804;12.866;2023-02-12T08:24:02;66.93;;;25.38;;
49193;SDS011;35029;50.804;12.866;2023-02-12T08:26:32;70.00;;;24.75;;
49193;SDS011;35029;50.804;12.866;2023-02-12T08:29:16;60.17;;;23.58;;
49193;SDS011;35029;50.804;12.866;2023-02-12T08:31:44;60.92;;;23.15;;
49193;SDS011;35029;50.804;12.866;2023-02-12T08:34:18;63.67;;;24.33;;
49193;SDS011;35029;50.804;12.866;2023-02-12T08:36:50;59.47;;;23.73;;
49193;SDS011;35029;50.804;12.866;2023-02-12T08:39:18;60.95;;;24.05;;
49193;SDS011;35029;50.804;12.866;2023-02-12T08:41:44;57.50;;;22.73;;
49193;SDS011;35029;50.804;12.866;2023-02-12T08:44:11;50.90;;;21.23;;
49193;SDS011;35029;50.804;12.866;2023-02-12T08:46:39;55.90;;;22.77;;
49193;SDS011;35029;50.804;12.866;2023-02-12T08:49:12;55.97;;;21.50;;
49193;SDS011;35029;50.804;12.866;2023-02-12T08:51:41;53.15;;;22.27;;
49193;SDS011;35029;50.804;12.866;2023-02-12T08:54:09;56.17;;;23.98;;
49193;SDS011;35029;50.804;12.866;2023-02-12T08:56:38;62.05;;;24.52;;
49193;SDS011;35029;50.804;12.866;2023-02-12T08:59:05;76.22;;;26.05;;
49193;SDS011;35029;50.804;12.866;2023-02-12T09:01:33;66.78;;;24.17;;
49193;SDS011;35029;50.804;12.866;2023-02-12T09:04:02;51.72;;;20.95;;
49193;SDS011;35029;50.804;12.866;2023-02-12T09:06:31;48.70;;;20.88;;
49193;SDS011;35029;50.804;12.866;2023-02-12T09:08:58;49.30;;;22.08;;
49193;SDS011;35029;50.804;12.866;2023-02-12T09:11:24;61.05;;;24.63;;
49193;SDS011;35029;50.804;12.866;2023-02-12T09:13:55;52.00;;;22.42;;
49193;SDS011;35029;50.804;12.866;2023-02-12T09:16:23;54.40;;;22.55;;
49193;SDS011;35029;50.804;12.866;2023-02-12T09:18:49;60.72;;;23.60;;
49193;SDS011;35029;50.804;12.866;2023-02-12T09:21:14;64.30;;;26.05;;
49193;SDS011;35029;50.804;12.866;2023-02-12T09:23:43;62.83;;;26.80;;
49193;SDS011;35029;50.804;12.866;2023-02-12T09:26:11;70.15;;;27.20;;
49193;SDS011;35029;50.804;12.866;2023-02-12T09:28:39;59.67;;;25.00;;
49193;SDS011;35029;50.804;12.866;2023-02-12T09:31:05;71.15;;;26.20;;
49193;SDS011;35029;50.804;12.866;2023-02-12T09:33:33;64.93;;;26.30;;
49193;SDS011;35029;50.804;12.866;2023-02-12T09:36:03;67.70;;;26.58;;
49193;SDS011;35029;50.804;12.866;2023-02-12T09:38:30;63.53;;;25.75;;
49193;SDS011;35029;50.804;12.866;2023-02-12T09:46:29;87.13;;;27.83;;
49193;SDS011;35029;50.804;12.866;2023-02-12T09:48:59;79.38;;;27.17;;
49193;SDS011;35029;50.804;12.866;2023-02-12T09:51:36;87.50;;;29.20;;
49193;SDS011;35029;50.804;12.866;2023-02-12T09:54:11;78.88;;;27.90;;
49193;SDS011;35029;50.804;12.866;2023-02-12T09:56:40;71.20;;;28.17;;
49193;SDS011;35029;50.804;12.866;2023-02-12T09:59:10;94.35;;;27.85;;
49193;SDS011;35029;50.804;12.866;2023-02-12T10:01:45;77.75;;;27.45;;
49193;SDS011;35029;50.804;12.866;2023-02-12T10:04:11;71.00;;;26.00;;
49193;SDS011;35029;50.804;12.866;2023-02-12T10:06:49;73.47;;;27.05;;
49193;SDS011;35029;50.804;12.866;2023-02-12T10:09:42;72.22;;;27.90;;
49193;SDS011;35029;50.804;12.866;2023-02-12T10:17:31;78.07;;;27.15;;
49193;SDS011;35029;50.804;12.866;2023-02-12T10:28:27;82.25;;;28.13;;
49193;SDS011;35029;50.804;12.866;2023-02-12T10:30:57;87.38;;;29.80;;
49193;SDS011;35029;50.804;12.866;2023-02-12T10:33:36;72.45;;;29.10;;
49193;SDS011;35029;50.804;12.866;2023-02-12T10:38:38;61.83;;;26.88;;
49193;SDS011;35029;50.804;12.866;2023-02-12T10:41:12;60.58;;;25.02;;
49193;SDS011;35029;50.804;12.866;2023-02-12T10:43:40;56.35;;;24.27;;
49193;SDS011;35029;50.804;12.866;2023-02-12T10:46:05;61.22;;;25.35;;
49193;SDS011;35029;50.804;12.866;2023-02-12T10:48:36;67.85;;;25.88;;
49193;SDS011;35029;50.804;12.866;2023-02-12T10:53:44;59.92;;;24.02;;
49193;SDS011;35029;50.804;12.866;2023-02-12T10:58:39;48.00;;;21.77;;
49193;SDS011;35029;50.804;12.866;2023-02-12T11:01:15;48.75;;;21.17;;
49193;SDS011;35029;50.804;12.866;2023-02-12T11:03:44;42.23;;;19.97;;
49193;SDS011;35029;50.804;12.866;2023-02-12T11:06:12;42.53;;;19.23;;
49193;SDS011;35029;50.804;12.866;2023-02-12T11:08:40;41.97;;;19.73;;
49193;SDS011;35029;50.804;12.866;2023-02-12T11:11:10;38.15;;;18.13;;
49193;SDS011;35029;50.804;12.866;2023-02-12T11:13:44;29.40;;;15.60;;
49193;SDS011;35029;50.804;12.866;2023-02-12T11:16:25;37.70;;;16.40;;
49193;SDS011;35029;50.804;12.866;2023-02-12T11:18:59;35.20;;;16.35;;
49193;SDS011;35029;50.804;12.866;2023-02-12T11:21:30;29.08;;;14.82;;
49193;SDS011;35029;50.804;12.866;2023-02-12T11:23:56;23.65;;;14.88;;
49193;SDS011;35029;50.804;12.866;2023-02-12T11:26:23;24.58;;;14.63;;
49193;SDS011;35029;50.804;12.866;2023-02-12T11:28:55;25.23;;;14.73;;
49193;SDS011;35029;50.804;12.866;2023-02-12T11:31:39;27.80;;;13.43;;
49193;SDS011;35029;50.804;12.866;2023-02-12T11:36:35;26.55;;;15.00;;
49193;SDS011;35029;50.804;12.866;2023-02-12T11:39:02;32.08;;;15.32;;
49193;SDS011;35029;50.804;12.866;2023-02-12T11:41:34;30.88;;;14.90;;
49193;SDS011;35029;50.804;12.866;2023-02-12T11:44:12;32.33;;;15.02;;
49193;SDS011;35029;50.804;12.866;2023-02-12T11:46:49;28.08;;;15.15;;
49193;SDS011;35029;50.804;12.866;2023-02-12T11:49:20;22.88;;;13.45;;
49193;SDS011;35029;50.804;12.866;2023-02-12T11:51:53;33.20;;;15.65;;
49193;SDS011;35029;50.804;12.866;2023-02-12T11:54:24;36.83;;;15.95;;
49193;SDS011;35029;50.804;12.866;2023-02-12T11:56:53;42.20;;;17.98;;
49193;SDS011;35029;50.804;12.866;2023-02-12T11:59:39;46.80;;;21.08;;
49193;SDS011;35029;50.804;12.866;2023-02-12T12:04:46;39.60;;;18.15;;
49193;SDS011;35029;50.804;12.866;2023-02-12T12:07:27;44.03;;;19.55;;
49193;SDS011;35029;50.804;12.866;2023-02-12T12:09:57;46.45;;;21.10;;
49193;SDS011;35029;50.804;12.866;2023-02-12T12:12:38;42.65;;;20.35;;
49193;SDS011;35029;50.804;12.866;2023-02-12T12:15:20;46.08;;;20.92;;
49193;SDS011;35029;50.804;12.866;2023-02-12T12:18:13;50.88;;;21.88;;
49193;SDS011;35029;50.804;12.866;2023-02-12T12:21:08;52.33;;;22.83;;
49193;SDS011;35029;50.804;12.866;2023-02-12T12:30:00;47.92;;;22.08;;
49193;SDS011;35029;50.804;12.866;2023-02-12T12:32:30;54.60;;;22.10;;
49193;SDS011;35029;50.804;12.866;2023-02-12T12:35:00;55.65;;;21.58;;
49193;SDS011;35029;50.804;12.866;2023-02-12T12:37:37;51.90;;;21.75;;
49193;SDS011;35029;50.804;12.866;2023-02-12T12:50:47;44.63;;;20.20;;
49193;SDS011;35029;50.804;12.866;2023-02-12T12:53:51;42.83;;;20.73;;
49193;SDS011;35029;50.804;12.866;2023-02-12T13:07:26;44.60;;;21.15;;
49193;SDS011;35029;50.804;12.866;2023-02-12T13:10:19;50.47;;;21.55;;
49193;SDS011;35029;50.804;12.866;2023-02-12T13:15:24;44.33;;;20.30;;
49193;SDS011;35029;50.804;12.866;2023-02-12T13:17:57;51.65;;;20.48;;
49193;SDS011;35029;50.804;12.866;2023-02-12T13:20:36;44.40;;;20.10;;
49193;SDS011;35029;50.804;12.866;2023-02-12T13:28:46;47.35;;;19.88;;
49193;SDS011;35029;50.804;12.866;2023-02-12T13:31:22;46.58;;;19.52;;
49193;SDS011;35029;50.804;12.866;2023-02-12T13:34:04;43.05;;;20.45;;
49193;SDS011;35029;50.804;12.866;2023-02-12T13:36:32;46.00;;;21.35;;
49193;SDS011;35029;50.804;12.866;2023-02-12T13:41:52;49.13;;;20.23;;
49193;SDS011;35029;50.804;12.866;2023-02-12T13:44:34;54.25;;;20.63;;
49193;SDS011;35029;50.804;12.866;2023-02-12T13:53:14;54.65;;;21.92;;
49193;SDS011;35029;50.804;12.866;2023-02-12T13:56:26;56.00;;;22.17;;
49193;SDS011;35029;50.804;12.866;2023-02-12T13:58:49;55.70;;;22.30;;
49193;SDS011;35029;50.804;12.866;2023-02-12T14:06:57;44.60;;;21.00;;
49193;SDS011;35029;50.804;12.866;2023-02-12T14:09:26;46.20;;;20.77;;
49193;SDS011;35029;50.804;12.866;2023-02-12T14:12:05;52.22;;;22.05;;
49193;SDS011;35029;50.804;12.866;2023-02-12T14:14:39;46.60;;;20.33;;
49193;SDS011;35029;50.804;12.866;2023-02-12T14:19:57;48.28;;;20.77;;
49193;SDS011;35029;50.804;12.866;2023-02-12T14:24:55;44.47;;;20.20;;
49193;SDS011;35029;50.804;12.866;2023-02-12T14:27:26;52.55;;;22.15;;
49193;SDS011;35029;50.804;12.866;2023-02-12T14:37:59;46.03;;;21.85;;
49193;SDS011;35029;50.804;12.866;2023-02-12T14:43:03;51.80;;;23.70;;
49193;SDS011;35029;50.804;12.866;2023-02-12T14:45:47;52.30;;;23.05;;
49193;SDS011;35029;50.804;12.866;2023-02-12T14:51:21;52.17;;;23.35;;
49193;SDS011;35029;50.804;12.866;2023-02-12T14:53:52;53.72;;;22.77;;
49193;SDS011;35029;50.804;12.866;2023-02-12T14:56:20;45.22;;;21.17;;
49193;SDS011;35029;50.804;12.866;2023-02-12T14:58:48;48.90;;;21.73;;
49193;SDS011;35029;50.804;12.866;2023-02-12T15:01:16;51.83;;;23.17;;
49193;SDS011;35029;50.804;12.866;2023-02-12T15:03:45;50.95;;;21.30;;
49193;SDS011;35029;50.804;12.866;2023-02-12T15:08:56;48.83;;;20.67;;
49193;SDS011;35029;50.804;12.866;2023-02-12T15:22:16;42.25;;;19.42;;
49193;SDS011;35029;50.804;12.866;2023-02-12T15:24:48;47.78;;;21.30;;
49193;SDS011;35029;50.804;12.866;2023-02-12T15:27:14;39.80;;;19.52;;
49193;SDS011;35029;50.804;12.866;2023-02-12T15:29:48;45.05;;;19.17;;
49193;SDS011;35029;50.804;12.866;2023-02-12T15:32:18;38.85;;;19.30;;
49193;SDS011;35029;50.804;12.866;2023-02-12T15:34:51;45.75;;;21.02;;
49193;SDS011;35029;50.804;12.866;2023-02-12T15:37:20;50.28;;;22.63;;
49193;SDS011;35029;50.804;12.866;2023-02-12T15:39:49;48.80;;;22.77;;
49193;SDS011;35029;50.804;12.866;2023-02-12T15:42:31;47.67;;;22.30;;
49193;SDS011;35029;50.804;12.866;2023-02-12T15:45:17;49.42;;;22.38;;
49193;SDS011;35029;50.804;12.866;2023-02-12T15:47:54;42.45;;;20.20;;
49193;SDS011;35029;50.804;12.866;2023-02-12T15:50:44;41.40;;;20.88;;
49193;SDS011;35029;50.804;12.866;2023-02-12T15:53:13;47.95;;;20.90;;
49193;SDS011;35029;50.804;12.866;2023-02-12T15:55:40;44.42;;;21.15;;
49193;SDS011;35029;50.804;12.866;2023-02-12T15:58:19;54.40;;;25.52;;
49193;SDS011;35029;50.804;12.866;2023-02-12T16:00:53;43.33;;;21.70;;
49193;SDS011;35029;50.804;12.866;2023-02-12T16:03:43;43.13;;;21.30;;
49193;SDS011;35029;50.804;12.866;2023-02-12T16:06:14;45.53;;;21.27;;
49193;SDS011;35029;50.804;12.866;2023-02-12T16:09:02;42.90;;;21.13;;
49193;SDS011;35029;50.804;12.866;2023-02-12T16:11:35;48.47;;;24.50;;
49193;SDS011;35029;50.804;12.866;2023-02-12T16:14:02;52.88;;;25.05;;
49193;SDS011;35029;50.804;12.866;2023-02-12T16:16:40;54.42;;;26.00;;
49193;SDS011;35029;50.804;12.866;2023-02-12T16:24:44;58.97;;;27.20;;
49193;SDS011;35029;50.804;12.866;2023-02-12T16:29:48;61.53;;;26.50;;
49193;SDS011;35029;50.804;12.866;2023-02-12T16:35:05;61.42;;;25.98;;
49193;SDS011;35029;50.804;12.866;2023-02-12T16:42:56;65.82;;;27.90;;
49193;SDS011;35029;50.804;12.866;2023-02-12T16:50:34;61.60;;;27.08;;
49193;SDS011;35029;50.804;12.866;2023-02-12T16:53:04;58.20;;;25.73;;
49193;SDS011;35029;50.804;12.866;2023-02-12T16:55:31;59.95;;;27.42;;
49193;SDS011;35029;50.804;12.866;2023-02-12T16:57:58;51.90;;;25.90;;
49193;SDS011;35029;50.804;12.866;2023-02-12T17:00:27;54.13;;;26.25;;
49193;SDS011;35029;50.804;12.866;2023-02-12T17:02:53;49.22;;;23.92;;
49193;SDS011;35029;50.804;12.866;2023-02-12T17:05:19;48.95;;;24.05;;
49193;SDS011;35029;50.804;12.866;2023-02-12T17:07:47;41.60;;;22.75;;
49193;SDS011;35029;50.804;12.866;2023-02-12T17:10:14;45.38;;;20.65;;
49193;SDS011;35029;50.804;12.866;2023-02-12T17:12:50;47.47;;;22.27;;
49193;SDS011;35029;50.804;12.866;2023-02-12T17:15:59;36.42;;;19.83;;
49193;SDS011;35029;50.804;12.866;2023-02-12T17:18:19;42.72;;;20.42;;
49193;SDS011;35029;50.804;12.866;2023-02-12T17:20:46;47.13;;;20.08;;
49193;SDS011;35029;50.804;12.866;2023-02-12T17:23:17;39.63;;;20.20;;